Time;durP1;ratioP1;P1;durP2;ratioP2;P2;SDS_P1;SDS_P2;PMS_P1;PMS_P2;Temp;Humidity;BMP_temperature;BMP_pressure;BME280_temperature;BME280_humidity;BME280_pressure;Samples;Min_cycle;Max_cycle;Signal;HPM_P1;HPM_P2
2021/03/04 00:01:19;;;;;;;32.20;15.45;;;;;;;2.52;80.72;98368.53;4979367;28;20026;-83
2021/03/04 00:03:45;;;;;;;32.60;15.70;;;;;;;2.51;82.20;98367.66;4986951;28;20042;-82
2021/03/04 00:06:11;;;;;;;29.95;14.82;;;;;;;2.50;81.33;98365.91;4975898;28;20027;-83
2021/03/04 00:08:36;;;;;;;26.42;14.10;;;;;;;2.44;81.76;98355.44;4966859;28;20072;-84
2021/03/04 00:11:02;;;;;;;30.75;14.25;;;;;;;2.44;81.83;98354.56;4960226;28;20035;-83
2021/03/04 00:13:27;;;;;;;31.95;16.33;;;;;;;2.48;81.40;98351.00;4973915;28;20116;-84
2021/03/04 00:15:54;;;;;;;29.80;16.38;;;;;;;2.42;82.32;98346.69;4979015;28;20054;-84
2021/03/04 00:18:20;;;;;;;34.80;16.17;;;;;;;2.39;82.33;98352.03;4965763;28;20089;-84
2021/03/04 00:20:46;;;;;;;39.28;18.33;;;;;;;2.34;83.02;98343.28;4980382;28;20030;-83
2021/03/04 00:23:11;;;;;;;34.10;16.05;;;;;;;2.29;84.32;98334.59;5007920;28;20049;-83
2021/03/04 00:25:37;;;;;;;34.35;15.88;;;;;;;2.18;84.29;98324.19;4959301;28;20026;-84
2021/03/04 00:28:05;;;;;;;36.90;16.65;;;;;;;2.21;83.84;98331.22;4976353;28;20049;-84
2021/03/04 00:30:30;;;;;;;38.22;16.38;;;;;;;2.06;84.48;98319.13;4988887;28;20030;-84
2021/03/04 00:32:56;;;;;;;38.50;18.33;;;;;;;2.10;84.74;98317.31;4983351;28;20034;-84
2021/03/04 00:35:23;;;;;;;40.22;18.30;;;;;;;2.05;85.24;98325.31;4988191;28;20042;-84
2021/03/04 00:37:48;;;;;;;33.20;15.02;;;;;;;1.98;85.28;98322.78;4962288;28;20031;-82
2021/03/04 00:40:17;;;;;;;28.58;13.75;;;;;;;1.88;85.26;98310.63;4994637;28;20026;-84
2021/03/04 00:42:43;;;;;;;34.55;15.43;;;;;;;1.93;85.00;98314.06;4994381;28;20030;-83
2021/03/04 00:45:14;;;;;;;36.70;15.38;;;;;;;1.87;85.27;98303.63;4970401;28;20057;-83
2021/03/04 00:47:39;;;;;;;35.83;16.30;;;;;;;1.86;85.44;98296.59;4987843;28;20027;-84
2021/03/04 00:50:07;;;;;;;49.22;14.65;;;;;;;1.85;85.78;98305.38;4993146;28;20524;-83
2021/03/04 00:52:32;;;;;;;33.25;15.32;;;;;;;1.81;85.67;98293.16;4994787;28;20027;-83
2021/03/04 00:54:58;;;;;;;29.83;15.80;;;;;;;1.79;85.88;98300.22;4977925;28;20022;-83
2021/03/04 00:57:24;;;;;;;33.72;16.38;;;;;;;1.78;86.34;98285.31;4985723;28;20032;-83
2021/03/04 00:59:49;;;;;;;33.90;17.35;;;;;;;1.79;86.21;98282.63;4978107;28;20068;-83
2021/03/04 01:02:15;;;;;;;29.00;14.60;;;;;;;1.76;86.07;98284.44;4981853;28;20037;-83
2021/03/04 01:04:41;;;;;;;25.17;12.93;;;;;;;1.77;86.02;98273.00;4973225;28;20021;-84
2021/03/04 01:07:06;;;;;;;23.10;12.60;;;;;;;1.74;86.36;98267.78;4971252;28;20033;-85
2021/03/04 01:09:32;;;;;;;30.05;14.77;;;;;;;1.79;87.31;98269.44;4966581;28;20105;-85
2021/03/04 01:11:58;;;;;;;30.65;14.65;;;;;;;1.62;86.91;98263.56;4996300;28;20129;-84
2021/03/04 01:14:23;;;;;;;34.03;13.55;;;;;;;1.58;87.57;98257.47;4973547;28;20404;-84
2021/03/04 01:16:49;;;;;;;28.70;14.05;;;;;;;1.62;88.29;98268.84;4972789;28;20057;-84
2021/03/04 01:19:15;;;;;;;27.00;13.60;;;;;;;1.55;88.10;98249.63;4970094;28;20030;-84
2021/03/04 01:21:40;;;;;;;27.45;13.48;;;;;;;1.54;88.17;98250.50;4967803;28;20030;-84
2021/03/04 01:24:07;;;;;;;38.88;16.55;;;;;;;1.48;87.89;98261.13;4979087;28;20401;-84
2021/03/04 01:26:33;;;;;;;34.92;17.23;;;;;;;1.44;87.91;98251.53;4974675;28;20640;-84
2021/03/04 01:28:58;;;;;;;40.88;20.20;;;;;;;1.43;87.64;98241.00;4971938;28;20109;-84
2021/03/04 01:31:24;;;;;;;51.25;22.42;;;;;;;1.43;87.88;98236.63;4973177;28;20083;-83
2021/03/04 01:33:50;;;;;;;38.47;17.98;;;;;;;1.27;89.89;98243.00;5007302;28;20030;-84
2021/03/04 01:36:15;;;;;;;34.28;16.33;;;;;;;1.33;88.51;98234.13;4976958;28;20034;-84
2021/03/04 01:38:41;;;;;;;28.65;14.20;;;;;;;1.38;88.11;98227.91;4969995;28;20030;-84
2021/03/04 01:41:06;;;;;;;38.72;18.25;;;;;;;1.38;87.78;98234.94;4995672;28;20409;-84
2021/03/04 01:43:32;;;;;;;44.85;20.70;;;;;;;1.25;89.23;98218.44;4977049;28;20030;-84
2021/03/04 01:45:58;;;;;;;38.72;17.88;;;;;;;1.26;88.49;98214.88;4977053;28;20022;-83
2021/03/04 01:48:23;;;;;;;26.58;12.90;;;;;;;1.29;87.57;98212.25;4985462;28;20030;-85
2021/03/04 01:50:49;;;;;;;34.45;13.75;;;;;;;1.32;88.30;98204.28;4961002;28;20038;-83
2021/03/04 01:53:15;;;;;;;31.42;13.55;;;;;;;1.28;89.01;98207.84;4971040;28;20125;-85
2021/03/04 01:55:41;;;;;;;31.77;13.68;;;;;;;1.29;89.11;98199.06;4991870;28;20133;-85
2021/03/04 01:58:06;;;;;;;31.60;12.80;;;;;;;1.27;89.31;98197.31;5001985;28;20481;-82
2021/03/04 02:00:32;;;;;;;25.70;12.02;;;;;;;1.31;89.02;98202.53;4977634;28;20117;-83
2021/03/04 02:02:58;;;;;;;27.42;12.93;;;;;;;1.21;89.00;98181.63;4969532;28;20481;-85
2021/03/04 02:05:24;;;;;;;26.25;12.20;;;;;;;1.26;89.95;98193.81;4980707;28;20469;-84
2021/03/04 02:08:02;;;;;;;32.25;12.57;;;;;;;1.18;89.79;98195.72;4971883;28;20061;-84
2021/03/04 02:10:37;;;;;;;29.63;12.30;;;;;;;1.20;90.11;98201.81;4980832;28;20584;-84
2021/03/04 02:13:02;;;;;;;27.90;12.73;;;;;;;1.22;90.63;98191.25;4994623;28;20490;-85
2021/03/04 02:15:32;;;;;;;23.85;12.38;;;;;;;1.19;90.01;98193.94;4993680;28;20043;-84
2021/03/04 02:17:59;;;;;;;28.17;12.60;;;;;;;1.16;89.45;98186.97;4985419;28;20064;-84
2021/03/04 02:20:50;;;;;;;34.28;14.27;;;;;;;1.10;89.99;98187.06;4975795;28;20121;-85
2021/03/04 02:23:47;;;;;;;31.63;13.77;;;;;;;1.15;90.55;98190.47;4986166;28;20493;-85
2021/03/04 02:26:26;;;;;;;33.95;14.73;;;;;;;1.08;90.30;98191.44;4986615;28;20029;-85
2021/03/04 02:28:54;;;;;;;38.95;18.20;;;;;;;1.04;90.76;98181.88;4971584;28;20117;-85
2021/03/04 02:31:20;;;;;;;38.08;19.88;;;;;;;1.03;90.14;98174.84;4986901;28;20032;-84
2021/03/04 02:33:47;;;;;;;43.03;18.45;;;;;;;1.11;90.32;98183.50;4966126;28;20478;-85
2021/03/04 02:36:13;;;;;;;39.25;16.70;;;;;;;1.01;91.10;98174.91;4974357;28;20069;-84
2021/03/04 02:38:38;;;;;;;27.83;13.40;;;;;;;0.90;90.27;98174.16;4975501;28;20469;-84
2021/03/04 02:41:04;;;;;;;31.60;15.50;;;;;;;0.92;90.28;98169.72;4968652;28;20044;-84
2021/03/04 02:43:30;;;;;;;38.05;19.35;;;;;;;0.87;90.29;98170.69;4979493;28;20098;-84
2021/03/04 02:45:56;;;;;;;42.55;19.38;;;;;;;0.85;91.29;98183.00;4965270;28;20038;-84
2021/03/04 02:48:22;;;;;;;59.17;25.10;;;;;;;0.84;91.96;98191.78;4993657;28;20026;-84
2021/03/04 02:50:50;;;;;;;49.55;22.25;;;;;;;0.83;91.81;98184.81;4975881;28;20026;-84
2021/03/04 02:53:17;;;;;;;46.30;22.90;;;;;;;0.75;92.29;98186.66;4986555;28;20117;-85
2021/03/04 02:55:43;;;;;;;63.25;25.33;;;;;;;0.78;93.43;98191.88;4980168;28;20060;-85
2021/03/04 02:58:10;;;;;;;56.17;24.63;;;;;;;0.82;93.25;98175.16;4987931;28;20089;-83
2021/03/04 03:00:37;;;;;;;59.78;22.80;;;;;;;0.79;95.07;98175.19;4987596;28;20030;-85
2021/03/04 03:03:06;;;;;;;47.75;22.60;;;;;;;0.80;94.11;98164.63;4980629;28;20061;-84
2021/03/04 03:05:51;;;;;;;50.33;22.35;;;;;;;0.82;93.38;98181.31;4984511;28;20026;-86
2021/03/04 03:08:17;;;;;;;53.90;23.00;;;;;;;0.77;94.23;98177.00;4985888;28;20091;-86
2021/03/04 03:10:47;;;;;;;67.43;27.20;;;;;;;0.77;92.36;98179.63;4996568;28;20538;-85
2021/03/04 03:13:14;;;;;;;53.90;24.38;;;;;;;0.72;93.49;98184.06;4987818;28;20405;-84
2021/03/04 03:15:40;;;;;;;52.30;23.27;;;;;;;0.67;93.60;98170.97;4988110;28;20049;-84
2021/03/04 03:18:06;;;;;;;61.05;23.48;;;;;;;0.48;93.79;98157.19;4980254;28;20032;-84
2021/03/04 03:20:32;;;;;;;55.53;24.52;;;;;;;0.63;93.26;98184.19;4995788;28;20033;-85
2021/03/04 03:22:58;;;;;;;56.45;23.90;;;;;;;0.59;94.30;98178.06;4988540;28;20034;-86
2021/03/04 03:25:24;;;;;;;52.70;24.00;;;;;;;0.61;94.62;98173.69;4988588;28;20100;-85
2021/03/04 03:27:49;;;;;;;54.60;24.02;;;;;;;0.60;94.17;98176.31;4968128;28;20034;-85
2021/03/04 03:30:21;;;;;;;51.50;23.23;;;;;;;0.50;94.27;98167.66;4978212;28;20027;-85
2021/03/04 03:32:51;;;;;;;60.67;25.48;;;;;;;0.43;94.29;98155.50;4968501;28;20034;-84
2021/03/04 03:35:17;;;;;;;55.97;24.05;;;;;;;0.42;94.49;98159.88;4974144;28;20064;-84
2021/03/04 03:37:44;;;;;;;47.40;19.90;;;;;;;0.44;93.73;98157.22;4992037;28;20066;-84
2021/03/04 03:40:11;;;;;;;45.90;20.42;;;;;;;0.32;93.56;98160.00;4992001;28;20477;-85
2021/03/04 03:42:38;;;;;;;50.28;21.00;;;;;;;0.29;93.60;98153.03;4995928;28;20041;-85
2021/03/04 03:45:05;;;;;;;55.92;21.30;;;;;;;0.22;93.46;98156.59;4996068;28;20030;-85
2021/03/04 03:47:34;;;;;;;51.03;18.98;;;;;;;0.14;93.59;98153.19;4979587;28;20042;-85
2021/03/04 03:50:00;;;;;;;44.55;18.67;;;;;;;0.07;94.71;98151.50;4978804;28;20030;-85
2021/03/04 03:52:27;;;;;;;39.97;16.20;;;;;;;0.07;95.18;98143.63;4978313;28;20132;-85
2021/03/04 03:54:52;;;;;;;42.72;16.92;;;;;;;0.02;95.37;98140.19;4964733;28;20030;-85
2021/03/04 03:57:19;;;;;;;42.53;15.43;;;;;;;0.06;96.46;98131.38;4963267;28;20580;-85
2021/03/04 03:59:44;;;;;;;38.97;16.67;;;;;;;0.09;95.91;98138.38;4987884;28;20034;-85
2021/03/04 04:02:10;;;;;;;48.92;16.55;;;;;;;0.06;96.40;98133.13;4994761;28;20065;-85
2021/03/04 04:04:36;;;;;;;39.28;16.83;;;;;;;0.12;97.25;98139.22;4979883;28;20125;-86
2021/03/04 04:07:03;;;;;;;46.05;19.25;;;;;;;0.07;97.14;98135.75;4971391;28;20038;-85
2021/03/04 04:09:29;;;;;;;42.85;17.83;;;;;;;0.05;96.52;98128.75;4978634;28;20532;-85
2021/03/04 04:11:55;;;;;;;66.68;27.30;;;;;;;0.08;96.17;98131.34;4976830;28;20109;-85
2021/03/04 04:14:20;;;;;;;63.63;27.25;;;;;;;0.15;94.82;98139.16;4968094;28;20034;-86
2021/03/04 04:16:46;;;;;;;61.50;28.05;;;;;;;0.10;95.89;98124.31;4962550;28;20089;-85
2021/03/04 04:19:12;;;;;;;80.07;36.08;;;;;;;0.16;95.71;98125.09;4971026;28;20030;-84
2021/03/04 04:21:37;;;;;;;67.90;29.80;;;;;;;0.24;95.50;98127.66;4993193;28;20030;-85
2021/03/04 04:24:04;;;;;;;69.45;29.10;;;;;;;0.19;94.83;98113.69;4995102;28;20037;-85
2021/03/04 04:26:29;;;;;;;62.67;28.92;;;;;;;0.25;94.37;98119.75;4986006;28;20034;-84
2021/03/04 04:28:55;;;;;;;64.57;29.75;;;;;;;0.20;95.34;98118.06;4972204;28;20041;-85
2021/03/04 04:31:21;;;;;;;65.57;27.83;;;;;;;0.29;95.28;98125.84;4970986;28;20113;-87
2021/03/04 04:33:47;;;;;;;58.38;27.30;;;;;;;0.26;95.41;98118.00;4976031;28;20042;-85
2021/03/04 04:36:12;;;;;;;57.22;28.27;;;;;;;0.25;95.54;98108.34;4975922;28;20034;-85
2021/03/04 04:38:38;;;;;;;69.03;26.98;;;;;;;0.26;95.08;98113.59;4994254;28;20046;-85
2021/03/04 04:41:03;;;;;;;66.90;26.75;;;;;;;0.24;94.85;98107.50;4966273;28;20422;-86
2021/03/04 04:43:29;;;;;;;59.15;25.25;;;;;;;0.09;94.91;98097.16;4976299;28;20125;-89
2021/03/04 04:45:55;;;;;;;67.65;25.35;;;;;;;0.07;94.38;98104.19;4982159;28;20033;-84
2021/03/04 04:48:20;;;;;;;65.15;25.77;;;;;;;0.02;95.75;98098.13;4974037;28;20125;-88
2021/03/04 04:50:46;;;;;;;55.45;25.20;;;;;;;0.00;95.70;98095.50;4973892;28;20038;-85
2021/03/04 04:53:12;;;;;;;69.70;26.77;;;;;;;-0.01;96.44;98096.41;4975891;28;20113;-87
2021/03/04 04:55:37;;;;;;;77.45;31.20;;;;;;;0.06;95.80;98102.47;4993296;28;20050;-86
2021/03/04 04:58:04;;;;;;;81.95;35.78;;;;;;;-0.01;96.17;98098.16;5000339;28;20193;-85
2021/03/04 05:00:29;;;;;;;89.70;41.05;;;;;;;-0.09;96.32;98081.56;4982959;28;20582;-85
2021/03/04 05:02:55;;;;;;;91.00;39.83;;;;;;;-0.05;96.41;98085.91;4983035;28;20029;-87
2021/03/04 05:05:20;;;;;;;87.93;38.63;;;;;;;-0.06;97.33;98077.16;4975207;28;20029;-88
2021/03/04 05:07:46;;;;;;;88.75;38.88;;;;;;;-0.05;96.64;98076.28;4966349;28;20144;-86
2021/03/04 05:10:12;;;;;;;64.90;28.50;;;;;;;-0.09;96.66;98077.19;4976265;28;20080;-85
2021/03/04 05:12:38;;;;;;;59.92;28.23;;;;;;;-0.02;96.10;98067.47;4963336;28;20576;-85
2021/03/04 05:15:08;;;;;;;70.00;26.08;;;;;;;-0.01;96.02;98071.88;4988598;28;20046;-85
2021/03/04 05:17:40;;;;;;;57.13;24.92;;;;;;;0.03;96.39;98070.06;4959212;28;20116;-87
2021/03/04 05:20:07;;;;;;;59.33;23.42;;;;;;;0.08;95.32;98073.50;4963324;28;20022;-85
2021/03/04 05:22:32;;;;;;;65.72;24.15;;;;;;;0.11;94.93;98071.72;4947012;28;20026;-84
2021/03/04 05:24:58;;;;;;;62.22;22.15;;;;;;;0.14;95.87;98069.03;4947679;28;20026;-86
2021/03/04 05:27:26;;;;;;;54.15;21.88;;;;;;;0.46;94.88;98066.84;4962137;28;20640;-85
2021/03/04 05:29:52;;;;;;;50.47;19.98;;;;;;;1.63;90.49;98067.59;4975447;28;20410;-86
2021/03/04 05:32:18;;;;;;;57.63;19.85;;;;;;;2.77;80.47;98065.25;4976938;28;20125;-85
2021/03/04 05:34:44;;;;;;;60.42;25.38;;;;;;;3.40;77.14;98066.31;4976658;28;20019;-84
2021/03/04 05:37:10;;;;;;;59.40;27.08;;;;;;;4.01;72.39;98062.91;4962101;28;20057;-84
2021/03/04 05:39:35;;;;;;;63.47;30.38;;;;;;;5.11;67.54;98057.81;4941895;28;20121;-84
2021/03/04 05:42:05;;;;;;;72.20;33.47;;;;;;;6.21;62.05;98050.53;4942165;28;20534;-84
2021/03/04 05:44:31;;;;;;;65.63;28.40;;;;;;;7.39;58.05;98053.81;4991228;28;20040;-83
2021/03/04 05:46:57;;;;;;;112.45;58.72;;;;;;;7.63;55.86;98059.00;4953268;28;20480;-83
2021/03/04 05:49:23;;;;;;;92.78;41.58;;;;;;;9.01;50.51;98052.78;4992485;28;20034;-81
2021/03/04 05:51:52;;;;;;;92.13;41.10;;;;;;;9.79;47.48;98064.03;4967846;28;20038;-82
2021/03/04 05:54:20;;;;;;;85.22;40.92;;;;;;;10.33;45.80;98057.69;4992459;28;20394;-84
2021/03/04 05:56:46;;;;;;;89.47;44.40;;;;;;;11.21;44.30;98076.06;4967975;28;20402;-84
2021/03/04 05:59:13;;;;;;;90.47;45.17;;;;;;;12.45;41.98;98066.94;4959931;28;20026;-84
2021/03/04 06:01:40;;;;;;;87.93;42.30;;;;;;;13.38;38.98;98064.59;4959868;28;20034;-83
2021/03/04 06:04:05;;;;;;;87.20;41.63;;;;;;;13.54;38.33;98070.69;4952448;28;20030;-83
2021/03/04 06:06:31;;;;;;;82.47;40.03;;;;;;;13.86;37.59;98057.84;4960041;28;20128;-83
2021/03/04 06:08:57;;;;;;;93.90;42.58;;;;;;;14.18;37.49;98077.16;4974730;28;20031;-84
2021/03/04 06:11:23;;;;;;;94.68;43.67;;;;;;;15.22;34.83;98057.28;4951646;28;20030;-84
2021/03/04 06:13:48;;;;;;;131.38;59.17;;;;;;;15.15;35.00;98064.97;4966167;28;20114;-85
2021/03/04 06:16:14;;;;;;;144.93;70.78;;;;;;;14.92;34.67;98068.44;4949858;28;20647;-84
2021/03/04 06:18:44;;;;;;;158.85;75.28;;;;;;;14.15;36.13;98077.38;4924329;29;20031;-83
2021/03/04 06:21:36;;;;;;;142.52;68.90;;;;;;;15.54;34.17;98070.16;4945699;29;20105;-85
2021/03/04 06:24:11;;;;;;;123.78;63.15;;;;;;;15.45;34.16;98068.13;4940364;28;20561;-85
2021/03/04 06:26:37;;;;;;;128.77;65.53;;;;;;;15.31;34.18;98062.88;4963022;28;20094;-85
2021/03/04 06:29:19;;;;;;;123.68;63.90;;;;;;;14.71;35.11;98072.63;4957847;28;20479;-84
2021/03/04 06:31:59;;;;;;;132.80;65.63;;;;;;;15.59;33.69;98059.94;4932410;28;20130;-86
2021/03/04 06:34:37;;;;;;;136.95;68.70;;;;;;;15.20;34.43;98044.78;4923054;29;20107;-86
2021/03/04 06:37:13;;;;;;;133.68;67.53;;;;;;;14.82;35.43;98068.25;4949199;28;20059;-84
2021/03/04 06:40:04;;;;;;;;;;;;;;;;;;;;;
2021/03/04 06:42:41;;;;;;;155.57;65.90;;;;;;;15.18;34.80;98037.78;5128281;23;20050;-84
2021/03/04 06:45:11;;;;;;;124.28;61.60;;;;;;;16.20;33.13;98058.00;4991537;28;20045;-85
2021/03/04 06:47:36;;;;;;;129.70;64.57;;;;;;;15.53;34.18;98046.91;4968904;28;20038;-85
2021/03/04 06:53:22;;;;;;;;;;;;;;;16.19;33.35;98043.63;5137418;23;20127;-82
2021/03/04 06:55:52;;;;;;;143.90;72.88;;;;;;;15.53;33.77;98041.50;4926361;28;19924;-83
2021/03/04 06:58:25;;;;;;;129.57;71.95;;;;;;;16.53;33.36;98050.00;4957140;28;20143;-85
2021/03/04 07:01:03;;;;;;;151.30;74.78;;;;;;;17.86;31.18;98036.47;4944639;29;20035;-84
2021/03/04 07:03:50;;;;;;;148.63;79.15;;;;;;;18.85;29.23;98031.56;4936910;29;20078;-85
2021/03/04 07:06:18;;;;;;;151.77;77.60;;;;;;;18.69;29.78;98027.59;4936668;28;20046;-83
2021/03/04 07:08:46;;;;;;;158.88;76.85;;;;;;;19.54;28.15;98018.13;4913634;29;20024;-85
2021/03/04 07:11:14;;;;;;;139.20;73.88;;;;;;;19.82;28.21;98014.63;4938523;29;20363;-83
2021/03/04 07:13:40;;;;;;;149.82;77.53;;;;;;;20.47;28.06;98004.94;4945396;29;20387;-84
2021/03/04 07:16:14;;;;;;;145.18;76.20;;;;;;;20.81;26.84;98006.16;4956757;28;20553;-84
2021/03/04 07:18:43;;;;;;;121.22;67.18;;;;;;;20.98;26.48;98009.94;4962506;28;20027;-86
2021/03/04 07:21:22;;;;;;;131.95;67.93;;;;;;;20.42;27.58;97996.38;4959046;29;20035;-84
2021/03/04 07:23:48;;;;;;;119.25;58.03;;;;;;;20.44;28.31;98007.94;4945793;28;20109;-85
2021/03/04 07:26:14;;;;;;;95.80;50.30;;;;;;;20.27;27.60;97997.81;4941737;28;20026;-83
2021/03/04 07:28:42;;;;;;;78.90;39.83;;;;;;;19.99;28.44;97994.91;4952743;28;20095;-82
2021/03/04 07:31:09;;;;;;;88.20;38.65;;;;;;;19.75;28.18;97993.63;4966285;28;20508;-82
2021/03/04 07:33:36;;;;;;;95.55;39.70;;;;;;;20.44;28.04;97984.34;4937727;29;20430;-82
2021/03/04 07:36:10;;;;;;;179.50;44.80;;;;;;;20.18;28.26;97976.91;4920389;29;20490;-82
2021/03/04 07:38:37;;;;;;;70.07;36.97;;;;;;;20.57;27.94;97969.56;4945468;28;20031;-82
2021/03/04 07:41:09;;;;;;;92.97;37.53;;;;;;;20.13;27.95;97984.63;4926308;29;20090;-83
2021/03/04 07:43:45;;;;;;;81.55;33.83;;;;;;;20.68;27.99;97975.69;4927909;29;20114;-82
2021/03/04 07:46:11;;;;;;;69.13;35.05;;;;;;;21.24;26.73;97978.38;4959823;28;20026;-82
2021/03/04 07:48:48;;;;;;;87.60;37.60;;;;;;;21.64;26.41;97964.38;4931204;28;20026;-83
2021/03/04 07:51:13;;;;;;;69.22;34.00;;;;;;;21.92;25.91;97957.91;4955376;28;20034;-82
2021/03/04 07:53:42;;;;;;;60.53;31.67;;;;;;;22.50;25.14;97960.09;4937437;29;20558;-83
2021/03/04 07:56:08;;;;;;;66.88;34.78;;;;;;;22.99;25.28;97953.97;4936049;29;20023;-82
2021/03/04 07:58:38;;;;;;;73.72;39.13;;;;;;;23.75;24.27;97945.75;4937056;28;20038;-82
2021/03/04 08:01:11;;;;;;;92.20;41.67;;;;;;;24.63;22.82;97941.38;4926379;29;20434;-82
2021/03/04 08:04:05;;;;;;;72.25;34.20;;;;;;;24.59;22.20;97926.34;4933936;29;20515;-82
2021/03/04 08:06:42;;;;;;;44.60;24.42;;;;;;;24.59;21.62;97918.13;4923598;28;20047;-82
2021/03/04 08:09:08;;;;;;;55.97;25.27;;;;;;;25.14;21.65;97919.03;4936253;29;20042;-82
2021/03/04 08:11:34;;;;;;;46.03;20.63;;;;;;;24.56;21.67;97919.31;4929717;28;20030;-81
2021/03/04 08:14:13;;;;;;;53.50;20.52;;;;;;;24.85;22.63;97909.72;4971289;28;20027;-83
2021/03/04 08:16:39;;;;;;;32.97;17.63;;;;;;;25.19;21.88;97916.63;4955299;28;20046;-82
2021/03/04 08:19:04;;;;;;;35.22;17.08;;;;;;;24.62;21.44;97898.63;4967455;28;20477;-83
2021/03/04 08:21:31;;;;;;;37.28;17.02;;;;;;;25.81;21.18;97911.16;4939821;29;20519;-81
2021/03/04 08:23:56;;;;;;;41.50;16.17;;;;;;;26.19;20.46;97912.13;4939534;29;20034;-83
2021/03/04 08:26:41;;;;;;;36.22;15.63;;;;;;;26.48;21.24;97894.91;4940190;29;20106;-83
2021/03/04 08:29:10;;;;;;;24.70;13.52;;;;;;;26.63;19.67;97895.78;4941121;29;20097;-82
2021/03/04 08:31:43;;;;;;;29.27;14.23;;;;;;;27.65;19.70;97892.19;4923613;29;20124;-84
2021/03/04 08:34:08;;;;;;;26.25;11.45;;;;;;;27.71;17.82;97877.66;4952913;28;20035;-85
2021/03/04 08:36:42;;;;;;;20.20;10.75;;;;;;;27.75;17.23;97871.56;4973599;28;20030;-84
2021/03/04 08:39:07;;;;;;;17.42;9.85;;;;;;;27.71;18.39;97874.91;4939289;29;20488;-84
2021/03/04 08:41:33;;;;;;;23.88;9.55;;;;;;;27.40;17.44;97844.91;4939447;28;20030;-84
2021/03/04 08:44:13;;;;;;;17.65;9.55;;;;;;;28.12;17.84;97872.41;4958416;28;20038;-84
2021/03/04 08:46:41;;;;;;;23.00;11.07;;;;;;;27.44;17.61;97873.72;4948832;28;20101;-84
2021/03/04 08:49:07;;;;;;;19.13;11.35;;;;;;;27.66;17.90;97863.63;4933232;28;20457;-84
2021/03/04 08:51:35;;;;;;;19.42;9.98;;;;;;;27.97;17.41;97861.41;4932785;28;20054;-84
2021/03/04 08:54:00;;;;;;;26.02;12.23;;;;;;;27.49;18.28;97853.91;4959613;28;20439;-84
2021/03/04 08:56:26;;;;;;;64.32;17.42;;;;;;;27.98;17.82;97860.38;4942569;28;20177;-84
2021/03/04 08:58:51;;;;;;;42.22;16.70;;;;;;;28.30;17.25;97850.75;4956578;28;20117;-84
2021/03/04 09:01:18;;;;;;;26.83;16.10;;;;;;;28.50;17.86;97851.75;4940256;29;20031;-83
2021/03/04 09:03:44;;;;;;;25.25;17.52;;;;;;;29.23;16.43;97834.63;4939023;28;20034;-83
2021/03/04 09:06:10;;;;;;;30.25;18.17;;;;;;;28.57;16.88;97840.78;4923427;29;20494;-84
2021/03/04 09:08:39;;;;;;;34.47;19.55;;;;;;;29.42;16.43;97839.41;4938978;28;20031;-83
2021/03/04 09:11:06;;;;;;;32.72;17.02;;;;;;;30.17;15.84;97840.25;4931683;29;20038;-83
2021/03/04 09:13:32;;;;;;;29.98;14.93;;;;;;;30.38;15.12;97829.84;4954836;29;20027;-84
2021/03/04 09:16:06;;;;;;;19.70;13.40;;;;;;;31.52;13.77;97820.06;4922707;29;20031;-84
2021/03/04 09:18:40;;;;;;;24.00;12.52;;;;;;;30.83;13.39;97803.22;4946388;28;20038;-84
2021/03/04 09:21:09;;;;;;;17.55;10.98;;;;;;;30.47;13.71;97800.13;4938770;29;20126;-85
2021/03/04 09:23:35;;;;;;;18.70;10.63;;;;;;;31.21;14.00;97808.88;4946307;28;20034;-85
2021/03/04 09:26:00;;;;;;;22.40;8.80;;;;;;;32.01;11.84;97799.09;4931153;29;20526;-84
2021/03/04 09:28:26;;;;;;;20.08;5.72;;;;;;;31.30;11.04;97768.84;4953595;28;20459;-85
2021/03/04 09:30:52;;;;;;;13.57;5.88;;;;;;;29.56;12.33;97763.94;4929146;28;20035;-82
2021/03/04 09:33:23;;;;;;;15.05;5.13;;;;;;;28.95;12.82;97749.31;4921073;29;20042;-86
2021/03/04 09:36:03;;;;;;;295.48;18.63;;;;;;;28.25;12.80;97751.41;4949794;28;20417;-85
2021/03/04 09:38:31;;;;;;;23.13;6.35;;;;;;;28.06;12.86;97766.72;4946180;28;20035;-86
2021/03/04 09:41:11;;;;;;;11.93;5.32;;;;;;;27.59;12.82;97750.00;4943698;29;20035;-86
2021/03/04 09:43:43;;;;;;;7.22;4.57;;;;;;;28.35;12.55;97752.78;4924521;29;20035;-84
2021/03/04 09:46:08;;;;;;;17.53;5.30;;;;;;;28.85;12.55;97742.50;4940700;29;20122;-84
2021/03/04 09:48:37;;;;;;;17.77;5.57;;;;;;;28.86;12.13;97739.50;4925439;29;20047;-85
2021/03/04 09:51:03;;;;;;;16.90;5.10;;;;;;;28.18;12.86;97737.59;4943119;28;20041;-85
2021/03/04 09:53:29;;;;;;;19.60;5.35;;;;;;;28.56;12.46;97735.31;4942867;28;20051;-85
2021/03/04 09:55:55;;;;;;;11.57;4.65;;;;;;;28.27;11.95;97722.63;4955642;28;20034;-85
2021/03/04 09:58:24;;;;;;;18.70;6.00;;;;;;;29.42;11.94;97729.13;4921954;29;20040;-86
2021/03/04 10:01:00;;;;;;;21.15;4.97;;;;;;;29.11;11.78;97737.06;4962424;28;20402;-86
2021/03/04 10:03:33;;;;;;;15.75;5.20;;;;;;;29.12;11.97;97733.25;4939662;29;20034;-85
2021/03/04 10:05:58;;;;;;;12.30;4.78;;;;;;;28.97;11.69;97718.81;4956594;28;20070;-86
2021/03/04 10:08:24;;;;;;;11.60;5.00;;;;;;;29.61;12.09;97726.59;4945844;28;20072;-87
2021/03/04 10:10:51;;;;;;;16.40;5.10;;;;;;;29.44;12.38;97715.97;4932607;28;20039;-85
2021/03/04 10:13:27;;;;;;;8.60;4.80;;;;;;;29.51;11.66;97710.47;4942627;28;20035;-85
2021/03/04 10:15:52;;;;;;;10.38;4.30;;;;;;;29.24;11.35;97700.47;4941004;29;20071;-85
2021/03/04 10:18:18;;;;;;;20.00;5.53;;;;;;;29.37;11.24;97698.59;4939365;29;20410;-84
2021/03/04 10:20:45;;;;;;;13.52;5.75;;;;;;;29.63;11.21;97692.25;4938424;29;20023;-85
2021/03/04 10:23:15;;;;;;;9.38;4.75;;;;;;;30.17;11.29;97705.84;4934932;28;20467;-85
2021/03/04 10:25:42;;;;;;;16.70;4.43;;;;;;;30.32;10.71;97689.03;4959234;28;20052;-85
2021/03/04 10:28:08;;;;;;;12.48;4.47;;;;;;;30.61;11.38;97681.09;4975232;28;20035;-85
2021/03/04 10:30:34;;;;;;;8.13;4.35;;;;;;;30.85;10.33;97670.41;4959191;28;20398;-86
2021/03/04 10:33:07;;;;;;;6.55;4.05;;;;;;;30.29;10.18;97664.63;4941826;28;20037;-85
2021/03/04 10:35:35;;;;;;;11.13;4.18;;;;;;;30.46;10.40;97663.09;4966792;28;20027;-86
2021/03/04 10:38:00;;;;;;;7.03;4.13;;;;;;;30.22;10.22;97663.78;4921861;28;20406;-84
2021/03/04 10:40:26;;;;;;;11.50;4.40;;;;;;;30.59;10.59;97650.09;4934203;28;20035;-84
2021/03/04 10:42:52;;;;;;;12.15;4.50;;;;;;;30.45;10.38;97637.41;4955303;28;20057;-85
2021/03/04 10:45:18;;;;;;;7.18;4.15;;;;;;;30.94;10.29;97641.44;4972531;28;20034;-85
2021/03/04 10:47:45;;;;;;;7.63;4.80;;;;;;;30.33;10.50;97627.22;4940320;28;20085;-86
2021/03/04 10:50:18;;;;;;;7.93;4.45;;;;;;;30.93;10.07;97625.91;4940251;28;20045;-86
2021/03/04 10:52:44;;;;;;;6.75;4.63;;;;;;;31.88;9.62;97630.34;4960805;28;20628;-85
2021/03/04 10:55:10;;;;;;;8.30;5.40;;;;;;;32.15;9.36;97623.50;4905297;29;20042;-85
2021/03/04 10:57:37;;;;;;;6.15;4.30;;;;;;;31.78;9.41;97616.19;4921243;29;20479;-86
2021/03/04 11:00:07;;;;;;;17.88;4.72;;;;;;;32.28;8.98;97622.50;4935295;29;20367;-87
2021/03/04 11:02:33;;;;;;;9.40;4.55;;;;;;;31.91;9.40;97602.19;4902421;29;20040;-86
2021/03/04 11:04:59;;;;;;;10.57;4.03;;;;;;;31.68;9.50;97600.97;4909715;29;20570;-85
2021/03/04 11:07:24;;;;;;;6.57;4.45;;;;;;;31.87;9.51;97599.03;4918801;29;20028;-87
2021/03/04 11:09:51;;;;;;;24.05;4.45;;;;;;;32.77;9.09;97599.31;4898633;29;20083;-86
2021/03/04 11:12:18;;;;;;;8.95;4.68;;;;;;;32.53;8.85;97588.09;4916882;29;20028;-85
2021/03/04 11:14:43;;;;;;;7.97;4.07;;;;;;;31.60;8.67;97575.47;4917829;29;20027;-86
2021/03/04 11:17:09;;;;;;;6.80;3.80;;;;;;;31.46;9.53;97566.44;4935593;29;20039;-84
2021/03/04 11:19:35;;;;;;;6.75;4.38;;;;;;;31.19;9.55;97562.19;4920666;29;20411;-84
2021/03/04 11:22:00;;;;;;;6.28;4.28;;;;;;;31.08;9.74;97572.06;4936751;29;20454;-86
2021/03/04 11:24:26;;;;;;;7.10;3.92;;;;;;;30.94;9.17;97564.06;4916948;29;20463;-84
2021/03/04 11:26:52;;;;;;;11.35;4.35;;;;;;;30.61;9.56;97547.66;4901496;29;20027;-85
2021/03/04 11:29:18;;;;;;;5.85;4.38;;;;;;;30.79;9.81;97549.72;4935586;29;20137;-85
2021/03/04 11:31:43;;;;;;;5.28;3.35;;;;;;;31.51;9.32;97540.88;4920396;29;20475;-86